Time;durP1;ratioP1;P1;durP2;ratioP2;P2;SDS_P1;SDS_P2;PMS_P1;PMS_P2;Temp;Humidity;BMP_temperature;BMP_pressure;BME280_temperature;BME280_humidity;BME280_pressure;Samples;Min_cycle;Max_cycle;Signal;HPM_P1;HPM_P2
2021/03/09 00:00:39;;;;;;;3.53;0.88;;;33.40;40.90;;;;;;5001996;28;20136;-68
2021/03/09 00:03:06;;;;;;;5.53;1.00;;;33.90;42.40;;;;;;5000138;28;20073;-70
2021/03/09 00:05:34;;;;;;;2.17;0.70;;;34.10;42.60;;;;;;5001353;28;20061;-70
2021/03/09 00:08:01;;;;;;;6.38;0.88;;;34.00;39.40;;;;;;5003186;28;20504;-68
2021/03/09 00:10:28;;;;;;;1.50;0.73;;;33.90;38.10;;;;;;5000564;28;20519;-68
2021/03/09 00:12:56;;;;;;;3.75;1.10;;;33.80;39.60;;;;;;4999803;28;20396;-68
2021/03/09 00:15:23;;;;;;;3.33;0.85;;;33.70;37.70;;;;;;4985862;28;20578;-69
2021/03/09 00:17:52;;;;;;;2.67;1.05;;;33.90;39.30;;;;;;5001344;28;20038;-65
2021/03/09 00:20:19;;;;;;;7.68;1.20;;;34.30;42.50;;;;;;5001725;28;20040;-66
2021/03/09 00:22:47;;;;;;;4.00;1.10;;;34.50;38.40;;;;;;4998796;28;20101;-67
2021/03/09 00:25:14;;;;;;;2.83;0.90;;;34.60;37.00;;;;;;5002190;28;20042;-67
2021/03/09 00:27:42;;;;;;;4.90;1.27;;;34.50;41.10;;;;;;5001836;28;20454;-66
2021/03/09 00:30:09;;;;;;;3.05;1.10;;;34.70;41.20;;;;;;5001955;28;20473;-66
2021/03/09 00:32:37;;;;;;;3.83;1.45;;;35.00;40.20;;;;;;4996975;28;20037;-68
2021/03/09 00:35:05;;;;;;;5.50;1.80;;;35.20;42.20;;;;;;5002167;28;20040;-67
2021/03/09 00:37:32;;;;;;;3.97;1.08;;;35.20;38.70;;;;;;5000797;28;20018;-67
2021/03/09 00:40:00;;;;;;;2.42;1.00;;;35.20;35.70;;;;;;5001935;28;20033;-67
2021/03/09 00:42:27;;;;;;;1.92;1.00;;;35.00;36.60;;;;;;4997367;28;20034;-66
2021/03/09 00:44:54;;;;;;;6.07;1.20;;;35.00;40.80;;;;;;5002214;28;20085;-67
2021/03/09 00:47:22;;;;;;;6.05;0.90;;;35.50;42.10;;;;;;5003019;28;20038;-67
2021/03/09 00:49:49;;;;;;;2.97;1.17;;;35.60;40.50;;;;;;5002085;28;20722;-66
2021/03/09 00:52:17;;;;;;;9.57;0.93;;;36.10;40.50;;;;;;4998230;28;20038;-69
2021/03/09 00:54:44;;;;;;;3.92;1.30;;;36.20;40.60;;;;;;4998280;28;20188;-67
2021/03/09 00:57:11;;;;;;;3.53;0.73;;;36.50;40.60;;;;;;5000302;28;21221;-66
2021/03/09 00:59:39;;;;;;;3.83;1.00;;;36.30;35.10;;;;;;4999751;28;20484;-68
2021/03/09 01:02:06;;;;;;;7.30;1.02;;;35.90;36.00;;;;;;4998413;28;20034;-68
2021/03/09 01:04:34;;;;;;;5.85;1.10;;;35.70;40.70;;;;;;5001633;28;20787;-69
2021/03/09 01:07:01;;;;;;;3.55;1.25;;;35.20;42.50;;;;;;5001596;28;20319;-68
2021/03/09 01:09:28;;;;;;;3.42;0.90;;;34.40;38.30;;;;;;5001878;28;20049;-66
2021/03/09 01:11:56;;;;;;;2.80;0.70;;;34.00;36.80;;;;;;4998413;28;20025;-67
2021/03/09 01:14:23;;;;;;;2.83;0.82;;;34.00;41.10;;;;;;5000269;28;20823;-67
2021/03/09 01:16:50;;;;;;;2.45;0.70;;;34.50;42.40;;;;;;5002398;28;20065;-68
2021/03/09 01:19:18;;;;;;;3.40;0.80;;;34.90;38.30;;;;;;5000838;28;20030;-66
2021/03/09 01:21:45;;;;;;;3.83;0.80;;;35.10;37.60;;;;;;4998811;28;20034;-67
2021/03/09 01:24:13;;;;;;;2.05;0.60;;;35.50;39.40;;;;;;4998541;28;20576;-67
2021/03/09 01:26:40;;;;;;;5.38;0.80;;;35.60;33.30;;;;;;5002069;28;20211;-66
2021/03/09 01:29:09;;;;;;;5.22;0.80;;;35.60;35.70;;;;;;5000283;28;20022;-68
2021/03/09 01:31:36;;;;;;;5.07;0.68;;;35.20;34.10;;;;;;4998775;28;20056;-68
2021/03/09 01:34:04;;;;;;;2.80;1.02;;;35.10;35.40;;;;;;5000234;28;20133;-67
2021/03/09 01:36:31;;;;;;;5.53;0.88;;;35.00;35.60;;;;;;5002760;28;20021;-66
2021/03/09 01:38:58;;;;;;;2.78;0.47;;;34.60;35.90;;;;;;5005983;28;20423;-65
2021/03/09 01:41:26;;;;;;;2.67;0.63;;;34.30;35.50;;;;;;5001695;28;20036;-67
2021/03/09 01:43:53;;;;;;;4.38;0.50;;;34.20;37.70;;;;;;5004215;28;20054;-67
2021/03/09 01:46:21;;;;;;;2.25;0.40;;;34.60;36.70;;;;;;5005181;28;20541;-66
2021/03/09 01:48:49;;;;;;;2.80;0.50;;;34.80;34.40;;;;;;5005401;28;20079;-66
2021/03/09 01:51:18;;;;;;;0.80;0.38;;;34.70;35.50;;;;;;5001117;28;20145;-67
2021/03/09 01:53:46;;;;;;;2.75;0.50;;;34.70;34.90;;;;;;5002244;28;20053;-66
2021/03/09 01:56:14;;;;;;;4.97;0.80;;;34.20;35.70;;;;;;5002727;28;20124;-66
2021/03/09 01:58:46;;;;;;;1.77;0.47;;;34.40;35.10;;;;;;5003225;28;20046;-67
2021/03/09 02:01:13;;;;;;;3.00;0.63;;;35.00;35.80;;;;;;5001912;28;20448;-66
2021/03/09 02:03:40;;;;;;;3.47;0.55;;;35.60;33.60;;;;;;5003087;28;20140;-69
2021/03/09 02:06:09;;;;;;;2.88;0.60;;;35.80;34.90;;;;;;5003490;28;20064;-69
2021/03/09 02:08:37;;;;;;;3.47;0.47;;;35.80;31.30;;;;;;5005036;28;20018;-67
2021/03/09 02:11:18;;;;;;;3.40;0.50;;;35.80;32.90;;;;;;5002804;28;20084;-67
2021/03/09 02:14:19;;;;;;;3.28;1.17;;;35.70;31.10;;;;;;5003525;28;20042;-68
2021/03/09 02:16:59;;;;;;;2.10;0.50;;;35.90;33.00;;;;;;5005166;28;20121;-69
2021/03/09 02:19:45;;;;;;;2.15;0.60;;;36.00;33.10;;;;;;5004667;28;20029;-68
2021/03/09 02:22:48;;;;;;;3.50;0.63;;;35.20;33.20;;;;;;4999989;28;20030;-70
2021/03/09 02:25:46;;;;;;;1.45;0.30;;;34.80;34.30;;;;;;5004993;28;20037;-68
2021/03/09 02:28:28;;;;;;;2.05;0.52;;;35.50;36.40;;;;;;5004473;28;20088;-70
2021/03/09 02:30:58;;;;;;;3.83;1.15;;;36.40;32.20;;;;;;5003122;28;20026;-68
2021/03/09 02:33:36;;;;;;;2.10;0.60;;;36.50;33.70;;;;;;5002629;28;20050;-68
2021/03/09 02:36:12;;;;;;;4.70;0.70;;;35.80;32.50;;;;;;5003293;28;20113;-67
2021/03/09 02:39:01;;;;;;;4.45;1.08;;;35.90;34.00;;;;;;5003466;28;20026;-68
2021/03/09 02:41:30;;;;;;;4.32;0.80;;;36.70;36.50;;;;;;5001706;28;20022;-67
2021/03/09 02:43:58;;;;;;;6.43;0.60;;;36.90;34.00;;;;;;5002305;28;20424;-68
2021/03/09 02:46:30;;;;;;;3.80;0.40;;;36.90;33.00;;;;;;5004414;28;20036;-68
2021/03/09 02:48:58;;;;;;;3.10;0.68;;;36.30;33.00;;;;;;5005250;28;20054;-70
2021/03/09 02:51:28;;;;;;;2.38;0.50;;;36.30;31.40;;;;;;5001154;28;20041;-69
2021/03/09 02:53:59;;;;;;;2.45;0.50;;;36.60;32.10;;;;;;5003520;28;20038;-69
2021/03/09 02:56:26;;;;;;;6.18;1.90;;;37.20;35.10;;;;;;5003869;28;20069;-67
2021/03/09 02:58:59;;;;;;;11.90;2.78;;;37.30;38.70;;;;;;5004140;28;20022;-67
2021/03/09 03:01:28;;;;;;;9.98;3.28;;;36.80;41.40;;;;;;5001685;28;20041;-68
2021/03/09 03:03:56;;;;;;;7.40;2.92;;;35.70;44.30;;;;;;5003749;28;20033;-69
2021/03/09 03:06:26;;;;;;;8.90;3.13;;;35.10;44.10;;;;;;5003738;28;20045;-68
2021/03/09 03:08:57;;;;;;;9.02;2.70;;;34.50;45.20;;;;;;5003744;28;20117;-68
2021/03/09 03:11:25;;;;;;;6.43;3.38;;;34.50;46.00;;;;;;5001148;28;20117;-69
2021/03/09 03:13:54;;;;;;;10.85;3.35;;;34.50;46.00;;;;;;5002476;28;20539;-70
2021/03/09 03:16:25;;;;;;;7.65;3.70;;;34.70;45.50;;;;;;5004480;28;20476;-68
2021/03/09 03:18:54;;;;;;;7.75;3.67;;;34.40;46.30;;;;;;5003351;28;20040;-68
2021/03/09 03:21:22;;;;;;;9.80;3.75;;;34.20;47.20;;;;;;5001572;28;20382;-68
2021/03/09 03:23:51;;;;;;;9.77;3.17;;;33.90;47.70;;;;;;5002476;28;20145;-71
2021/03/09 03:26:20;;;;;;;14.02;4.00;;;33.80;47.30;;;;;;5004281;28;20294;-67
2021/03/09 03:28:48;;;;;;;8.45;4.00;;;33.80;47.80;;;;;;5003204;28;20033;-68
2021/03/09 03:31:15;;;;;;;9.82;3.28;;;33.80;48.80;;;;;;4999013;28;20217;-69
2021/03/09 03:33:43;;;;;;;7.45;3.45;;;34.00;47.60;;;;;;5001856;28;20046;-70
2021/03/09 03:36:10;;;;;;;9.15;3.80;;;33.80;47.20;;;;;;5003997;28;20030;-68
2021/03/09 03:38:40;;;;;;;11.85;3.97;;;33.70;46.80;;;;;;5002555;28;20033;-68
2021/03/09 03:41:10;;;;;;;8.60;3.65;;;33.50;47.60;;;;;;4998319;28;20100;-69
2021/03/09 03:43:39;;;;;;;7.82;3.75;;;33.40;48.10;;;;;;5000615;28;20034;-70
2021/03/09 03:46:07;;;;;;;11.85;3.75;;;33.40;48.30;;;;;;5003186;28;20511;-71
2021/03/09 03:48:37;;;;;;;7.70;3.67;;;33.40;47.40;;;;;;5002937;28;20037;-71
2021/03/09 03:51:08;;;;;;;13.52;3.83;;;33.40;48.30;;;;;;5001273;28;20480;-67
2021/03/09 03:53:57;;;;;;;8.00;3.92;;;33.40;48.40;;;;;;4999822;28;20034;-69
2021/03/09 03:56:54;;;;;;;13.75;3.70;;;33.40;48.10;;;;;;5002597;28;20485;-69
2021/03/09 03:59:29;;;;;;;9.23;3.30;;;33.20;47.60;;;;;;5002553;28;20485;-67
2021/03/09 04:01:56;;;;;;;;;;;33.20;48.20;;;;;;5001050;28;20048;-70
2021/03/09 04:04:27;;;;;;;11.80;3.88;;;33.50;49.00;;;;;;5002401;28;19913;-69
2021/03/09 04:06:55;;;;;;;17.08;4.28;;;33.50;49.00;;;;;;5003255;28;20030;-69
2021/03/09 04:09:25;;;;;;;11.00;3.55;;;33.40;49.50;;;;;;5002612;28;20440;-69
2021/03/09 04:11:57;;;;;;;10.43;3.65;;;33.20;50.30;;;;;;4999796;28;20030;-71
2021/03/09 04:14:24;;;;;;;13.20;3.75;;;33.20;49.90;;;;;;5001496;28;20046;-69
2021/03/09 04:16:54;;;;;;;14.73;4.50;;;32.80;49.90;;;;;;5003704;28;20034;-67
2021/03/09 04:19:23;;;;;;;10.20;3.05;;;32.40;50.50;;;;;;5001230;28;20033;-68
2021/03/09 04:21:50;;;;;;;7.25;3.17;;;32.30;51.40;;;;;;4999326;28;20118;-67
2021/03/09 04:24:18;;;;;;;15.05;4.05;;;32.40;52.00;;;;;;5001969;28;21528;-72
2021/03/09 04:26:46;;;;;;;14.10;4.07;;;32.30;52.40;;;;;;5002911;28;20489;-67
2021/03/09 04:29:16;;;;;;;10.32;3.00;;;32.40;51.70;;;;;;5002051;28;20053;-69
2021/03/09 04:31:44;;;;;;;10.45;3.60;;;32.70;50.40;;;;;;4994876;28;20033;-66
2021/03/09 04:34:12;;;;;;;11.05;3.13;;;32.30;50.70;;;;;;5000793;28;20048;-68
2021/03/09 04:36:42;;;;;;;11.15;3.53;;;32.20;50.60;;;;;;5001733;28;20025;-70
2021/03/09 04:39:11;;;;;;;12.10;4.10;;;32.10;50.70;;;;;;4999622;28;20045;-73
2021/03/09 04:41:39;;;;;;;9.38;4.07;;;31.80;51.00;;;;;;4997028;28;20030;-68
2021/03/09 04:44:07;;;;;;;11.02;2.92;;;31.80;51.30;;;;;;5000136;28;20092;-71
2021/03/09 04:46:35;;;;;;;8.27;2.67;;;31.60;51.50;;;;;;5002159;28;20058;-68
2021/03/09 04:49:04;;;;;;;10.77;3.88;;;31.50;52.00;;;;;;5002195;28;20041;-69
2021/03/09 04:51:35;;;;;;;13.60;3.03;;;31.60;51.90;;;;;;4999216;28;20030;-68
2021/03/09 04:54:02;;;;;;;10.55;3.92;;;31.70;52.20;;;;;;5001038;28;20040;-71
2021/03/09 04:56:31;;;;;;;14.23;3.70;;;31.50;53.30;;;;;;5001390;28;20034;-69
2021/03/09 04:58:58;;;;;;;10.73;3.58;;;31.40;54.10;;;;;;5002324;28;20519;-68
2021/03/09 05:01:26;;;;;;;10.07;3.30;;;31.30;54.00;;;;;;5000044;28;20034;-69
2021/03/09 05:03:53;;;;;;;11.32;3.25;;;31.20;54.20;;;;;;4998969;28;20064;-70
2021/03/09 05:06:20;;;;;;;12.07;3.88;;;30.90;54.80;;;;;;5001700;28;20564;-71
2021/03/09 05:08:48;;;;;;;11.95;4.22;;;30.60;55.40;;;;;;5001438;28;20029;-71
2021/03/09 05:11:15;;;;;;;12.27;3.45;;;30.60;55.30;;;;;;4998813;28;20692;-72
2021/03/09 05:13:43;;;;;;;14.15;2.85;;;30.40;55.40;;;;;;5000555;28;20034;-71
2021/03/09 05:16:10;;;;;;;11.90;3.47;;;30.30;56.00;;;;;;5001869;28;20022;-70
2021/03/09 05:18:37;;;;;;;17.45;4.15;;;30.40;56.40;;;;;;5002760;28;20211;-69
2021/03/09 05:21:05;;;;;;;16.98;3.35;;;30.40;56.60;;;;;;4998423;28;20601;-72
2021/03/09 05:23:32;;;;;;;14.25;3.67;;;30.50;56.10;;;;;;4999776;28;20038;-67
2021/03/09 05:26:00;;;;;;;15.32;3.63;;;30.30;56.00;;;;;;5002529;28;20433;-69
2021/03/09 05:28:27;;;;;;;15.65;3.90;;;30.10;56.80;;;;;;5001989;28;21405;-69
2021/03/09 05:30:54;;;;;;;8.63;2.95;;;30.00;57.40;;;;;;5000689;28;20364;-69
2021/03/09 05:33:22;;;;;;;11.48;3.53;;;30.00;57.70;;;;;;4997009;28;20107;-72
2021/03/09 05:35:49;;;;;;;8.98;2.78;;;29.80;58.20;;;;;;5001641;28;20030;-71
2021/03/09 05:38:16;;;;;;;11.95;3.53;;;29.80;58.40;;;;;;4998600;28;20080;-70
2021/03/09 05:40:44;;;;;;;10.75;3.95;;;29.50;58.80;;;;;;5001168;28;20030;-71
2021/03/09 05:43:12;;;;;;;10.65;3.20;;;29.20;59.60;;;;;;4997890;28;20812;-69
2021/03/09 05:45:39;;;;;;;11.38;3.47;;;28.70;60.80;;;;;;5001129;28;20555;-69
2021/03/09 05:48:07;;;;;;;14.55;3.42;;;28.30;61.30;;;;;;5002195;28;20034;-70
2021/03/09 05:50:35;;;;;;;14.45;3.60;;;28.40;62.20;;;;;;5000350;28;20069;-69
2021/03/09 05:53:02;;;;;;;13.93;3.30;;;28.60;61.40;;;;;;4998917;28;20033;-70
2021/03/09 05:55:30;;;;;;;13.85;3.63;;;28.20;62.00;;;;;;5000656;28;20042;-69
2021/03/09 05:57:58;;;;;;;10.77;2.67;;;27.90;63.00;;;;;;4999885;28;20706;-69
2021/03/09 06:00:25;;;;;;;12.80;3.30;;;27.60;63.20;;;;;;4998315;28;20041;-68
2021/03/09 06:02:54;;;;;;;12.00;3.40;;;27.50;63.80;;;;;;4998267;28;20022;-67
2021/03/09 06:05:21;;;;;;;12.18;2.97;;;27.30;64.40;;;;;;5001171;28;20034;-69
2021/03/09 06:07:53;;;;;;;14.00;3.47;;;27.10;65.00;;;;;;5001331;28;20495;-69
2021/03/09 06:10:25;;;;;;;11.25;3.03;;;27.00;65.00;;;;;;4997699;28;20034;-68
2021/03/09 06:12:53;;;;;;;12.07;2.58;;;26.90;65.40;;;;;;4994790;28;20121;-71
2021/03/09 06:15:20;;;;;;;11.00;2.95;;;26.80;65.30;;;;;;5001299;28;20034;-69
2021/03/09 06:17:58;;;;;;;10.60;3.17;;;26.90;65.20;;;;;;4999330;28;20026;-69
2021/03/09 06:20:28;;;;;;;10.45;2.65;;;26.90;65.00;;;;;;5000260;28;20488;-69
2021/03/09 06:22:58;;;;;;;13.50;3.65;;;26.90;64.90;;;;;;4998980;28;20030;-70
2021/03/09 06:25:31;;;;;;;11.40;2.88;;;26.70;65.10;;;;;;5003547;28;20052;-72
2021/03/09 06:28:06;;;;;;;12.90;3.13;;;26.60;65.20;;;;;;5004283;28;20034;-72
2021/03/09 06:30:38;;;;;;;12.10;4.25;;;26.60;65.40;;;;;;5003938;28;20119;-69
2021/03/09 06:33:07;;;;;;;15.68;4.30;;;26.60;65.60;;;;;;5000293;28;20076;-72
2021/03/09 06:35:36;;;;;;;9.32;2.65;;;26.70;65.30;;;;;;5002952;28;20497;-69
2021/03/09 06:38:31;;;;;;;9.10;2.53;;;26.70;65.30;;;;;;5004593;28;20077;-71
2021/03/09 06:41:10;;;;;;;7.28;3.10;;;26.60;65.60;;;;;;5003181;28;20107;-71
2021/03/09 06:43:40;;;;;;;10.43;2.58;;;26.60;65.30;;;;;;5000420;28;20637;-69
2021/03/09 06:46:13;;;;;;;11.48;3.83;;;26.60;64.90;;;;;;5002076;28;20033;-70
2021/03/09 06:48:41;;;;;;;12.13;2.72;;;26.70;64.90;;;;;;5004651;28;20609;-72
2021/03/09 06:51:25;;;;;;;9.60;2.60;;;27.00;64.40;;;;;;5003925;28;20037;-72
2021/03/09 06:54:06;;;;;;;10.80;2.67;;;27.00;64.60;;;;;;5000661;28;20117;-73
2021/03/09 06:56:39;;;;;;;8.93;2.35;;;26.80;64.70;;;;;;5000694;28;20105;-72
2021/03/09 06:59:27;;;;;;;13.05;3.70;;;26.60;65.10;;;;;;5003610;28;20064;-70
2021/03/09 07:02:05;;;;;;;13.15;2.70;;;26.50;65.40;;;;;;5001428;28;20088;-70
2021/03/09 07:04:34;;;;;;;8.65;2.80;;;26.50;65.80;;;;;;5001883;28;20038;-69
2021/03/09 07:07:01;;;;;;;6.60;2.90;;;26.50;65.80;;;;;;5004074;28;20433;-70
2021/03/09 07:09:29;;;;;;;17.60;3.22;;;26.60;66.10;;;;;;5003134;28;20128;-69
2021/03/09 07:11:58;;;;;;;11.30;2.95;;;26.50;66.10;;;;;;4999834;28;20132;-72
2021/03/09 07:14:28;;;;;;;12.65;3.80;;;26.50;65.90;;;;;;5002340;28;20543;-71
2021/03/09 07:16:55;;;;;;;11.73;2.42;;;26.40;66.00;;;;;;5002809;28;20014;-68
2021/03/09 07:19:35;;;;;;;8.70;2.88;;;26.40;65.60;;;;;;5002937;28;20030;-69
2021/03/09 07:22:04;;;;;;;9.48;2.70;;;26.40;65.50;;;;;;4999868;28;20026;-68
2021/03/09 07:24:33;;;;;;;12.48;3.10;;;26.10;65.60;;;;;;5003081;28;20033;-70
2021/03/09 07:27:11;;;;;;;8.00;2.70;;;26.00;66.10;;;;;;5003582;28;20044;-71
2021/03/09 07:29:50;;;;;;;17.52;3.33;;;25.80;67.00;;;;;;5003562;28;20030;-71
2021/03/09 07:32:23;;;;;;;14.30;2.72;;;25.70;66.70;;;;;;4998966;28;20398;-71
2021/03/09 07:34:51;;;;;;;13.52;3.95;;;25.60;67.60;;;;;;5000921;28;20077;-72
2021/03/09 07:37:18;;;;;;;12.27;3.47;;;25.40;67.60;;;;;;5004471;28;20022;-71
2021/03/09 07:39:48;;;;;;;12.35;3.75;;;25.40;68.20;;;;;;5004108;28;20029;-72
2021/03/09 07:42:17;;;;;;;12.00;3.33;;;25.30;68.30;;;;;;4999464;28;20025;-68
2021/03/09 07:44:47;;;;;;;10.10;3.40;;;25.30;69.00;;;;;;5003168;28;20085;-69
2021/03/09 07:47:18;;;;;;;10.15;2.63;;;25.20;69.10;;;;;;5002571;28;20508;-69
2021/03/09 07:49:46;;;;;;;12.18;2.72;;;25.30;69.20;;;;;;5001430;28;20026;-69
2021/03/09 07:52:18;;;;;;;14.75;2.70;;;25.20;69.50;;;;;;4998519;28;20062;-71
2021/03/09 07:55:04;;;;;;;10.52;3.13;;;25.10;70.00;;;;;;5001530;28;20042;-68
2021/03/09 07:57:34;;;;;;;12.52;2.80;;;25.00;70.80;;;;;;5002211;28;20044;-71
2021/03/09 08:00:07;;;;;;;14.05;3.03;;;24.90;71.00;;;;;;5001455;28;20049;-69
2021/03/09 08:02:57;;;;;;;13.02;3.65;;;24.80;71.30;;;;;;4997558;28;20042;-70
2021/03/09 08:05:29;;;;;;;16.45;3.35;;;24.80;71.40;;;;;;5002131;28;20108;-71
2021/03/09 08:08:04;;;;;;;15.18;3.80;;;24.80;71.30;;;;;;5002291;28;20029;-70
2021/03/09 08:10:34;;;;;;;15.85;3.67;;;24.80;71.10;;;;;;4999867;28;20041;-69
2021/03/09 08:13:15;;;;;;;12.43;3.72;;;24.70;71.40;;;;;;4998243;28;20040;-71
2021/03/09 08:15:43;;;;;;;14.63;3.55;;;24.70;71.30;;;;;;5001115;28;20061;-71
2021/03/09 08:18:19;;;;;;;15.57;4.40;;;24.70;70.90;;;;;;5002364;28;20034;-69
2021/03/09 08:21:00;;;;;;;15.52;3.88;;;24.70;71.30;;;;;;5001919;28;20077;-68
2021/03/09 08:23:36;;;;;;;16.45;4.20;;;24.60;71.20;;;;;;4996529;28;20048;-67
2021/03/09 08:26:25;;;;;;;10.43;3.03;;;24.70;71.30;;;;;;5000481;28;20033;-67
2021/03/09 08:28:53;;;;;;;14.27;3.80;;;24.80;70.90;;;;;;5014111;28;20389;-71
2021/03/09 08:31:20;;;;;;;16.40;3.83;;;24.70;71.00;;;;;;4999648;28;20034;-69
2021/03/09 08:33:55;;;;;;;10.90;3.35;;;24.70;71.10;;;;;;4997127;28;20122;-72
2021/03/09 08:36:28;;;;;;;11.77;2.85;;;24.60;71.40;;;;;;4999365;28;20030;-71
2021/03/09 08:39:04;;;;;;;11.00;2.80;;;24.70;71.30;;;;;;5000177;28;20034;-72
2021/03/09 08:41:38;;;;;;;10.80;2.47;;;24.70;71.20;;;;;;5000315;28;20038;-70
2021/03/09 08:44:20;;;;;;;11.10;2.70;;;24.70;70.70;;;;;;4998053;28;20056;-70
2021/03/09 08:47:05;;;;;;;11.77;2.45;;;24.80;70.60;;;;;;4998089;28;20030;-69
2021/03/09 08:49:39;;;;;;;14.63;2.92;;;24.60;71.20;;;;;;4999532;28;20033;-73
2021/03/09 08:52:11;;;;;;;9.15;2.67;;;24.50;71.80;;;;;;4996949;28;20084;-68
2021/03/09 08:54:42;;;;;;;12.40;2.92;;;24.50;71.70;;;;;;4999985;28;20064;-68
2021/03/09 08:57:20;;;;;;;9.55;2.47;;;24.50;71.90;;;;;;5014886;28;20041;-72
2021/03/09 08:59:52;;;;;;;14.63;3.63;;;24.50;72.10;;;;;;4996668;28;20550;-70
2021/03/09 09:02:27;;;;;;;18.65;3.42;;;24.50;71.80;;;;;;4994228;28;20026;-69
2021/03/09 09:05:06;;;;;;;9.55;2.65;;;24.50;71.80;;;;;;4997914;28;20483;-68
2021/03/09 09:07:39;;;;;;;13.38;3.35;;;24.40;72.00;;;;;;4997119;28;20559;-70
2021/03/09 09:10:15;;;;;;;12.77;2.90;;;24.40;72.10;;;;;;4998635;28;20063;-68
2021/03/09 09:12:47;;;;;;;12.00;2.28;;;24.40;72.30;;;;;;4996720;28;20018;-68
2021/03/09 09:15:24;;;;;;;22.35;3.30;;;24.30;72.60;;;;;;5001944;28;20085;-69
2021/03/09 09:17:59;;;;;;;13.25;2.88;;;24.30;72.20;;;;;;4997441;28;20033;-68
2021/03/09 09:20:29;;;;;;;11.05;3.40;;;24.30;72.50;;;;;;4999878;28;20172;-69
2021/03/09 09:23:15;;;;;;;14.43;3.28;;;24.30;72.40;;;;;;4995886;28;20036;-68
2021/03/09 09:25:45;;;;;;;11.02;3.88;;;24.30;72.50;;;;;;4999307;28;20026;-69
2021/03/09 09:28:29;;;;;;;12.73;3.05;;;24.40;72.10;;;;;;4999451;28;20054;-69
2021/03/09 09:31:04;;;;;;;16.38;4.93;;;24.30;72.40;;;;;;4998719;28;20087;-70
2021/03/09 09:33:33;;;;;;;20.08;4.40;;;24.20;72.60;;;;;;4997700;28;20041;-71
2021/03/09 09:36:00;;;;;;;14.20;3.63;;;24.20;72.80;;;;;;4999098;28;20042;-70
2021/03/09 09:38:27;;;;;;;14.40;3.00;;;24.10;72.70;;;;;;5001328;28;20524;-68
2021/03/09 09:40:57;;;;;;;14.38;3.90;;;24.00;72.90;;;;;;4999649;28;20029;-69
2021/03/09 09:43:29;;;;;;;14.38;2.50;;;23.90;73.50;;;;;;4996225;28;20376;-69
2021/03/09 09:46:04;;;;;;;14.05;3.67;;;24.00;73.10;;;;;;5000636;28;20085;-67
2021/03/09 09:48:36;;;;;;;17.73;3.85;;;24.00;73.30;;;;;;4999932;28;20069;-69
2021/03/09 09:51:05;;;;;;;15.88;3.50;;;24.00;73.10;;;;;;5000645;28;20080;-69
2021/03/09 09:53:36;;;;;;;14.00;2.78;;;24.00;73.20;;;;;;4996736;28;20042;-68
2021/03/09 09:56:10;;;;;;;21.77;3.42;;;24.00;72.80;;;;;;5001111;28;20026;-69
2021/03/09 09:58:46;;;;;;;14.38;3.40;;;23.90;72.60;;;;;;5004214;28;20895;-69
2021/03/09 10:01:18;;;;;;;14.68;3.13;;;23.90;73.50;;;;;;5001548;28;20852;-68
2021/03/09 10:03:53;;;;;;;9.70;2.80;;;23.80;72.80;;;;;;5001249;28;20158;-69
2021/03/09 10:06:23;;;;;;;12.57;2.88;;;23.80;72.90;;;;;;5002972;28;20083;-68
2021/03/09 10:08:51;;;;;;;11.85;2.58;;;23.80;72.90;;;;;;5004342;28;20544;-69
2021/03/09 10:11:19;;;;;;;15.45;3.03;;;23.80;73.00;;;;;;5003536;28;20034;-68
2021/03/09 10:13:47;;;;;;;7.40;2.47;;;23.80;73.20;;;;;;4999270;28;20030;-68
2021/03/09 10:16:14;;;;;;;13.00;4.47;;;23.70;73.20;;;;;;5004376;28;20033;-68
2021/03/09 10:18:42;;;;;;;13.07;3.58;;;23.80;73.30;;;;;;5004700;28;20063;-69
2021/03/09 10:21:17;;;;;;;9.65;2.97;;;23.80;73.10;;;;;;5002528;28;20472;-67
2021/03/09 10:23:59;;;;;;;9.85;3.00;;;23.80;73.10;;;;;;4999889;28;20121;-69
2021/03/09 10:26:38;;;;;;;13.13;3.42;;;23.80;72.90;;;;;;5002555;28;20064;-68
2021/03/09 10:29:20;;;;;;;15.23;3.47;;;23.80;73.00;;;;;;5004211;28;20149;-67
2021/03/09 10:31:54;;;;;;;11.32;3.05;;;23.80;72.60;;;;;;5003613;28;20539;-68
2021/03/09 10:34:42;;;;;;;14.68;3.63;;;23.70;73.00;;;;;;4998767;28;20030;-68
2021/03/09 10:37:11;;;;;;;14.13;2.92;;;23.70;73.30;;;;;;5003037;28;20064;-69
2021/03/09 10:39:54;;;;;;;11.90;3.58;;;23.70;73.40;;;;;;5004411;28;20029;-68
2021/03/09 10:42:30;;;;;;;14.80;3.83;;;23.70;73.50;;;;;;4997757;28;20034;-67
2021/03/09 10:45:20;;;;;;;13.82;3.05;;;23.70;73.40;;;;;;5000819;28;20053;-67
2021/03/09 10:48:16;;;;;;;15.63;3.95;;;23.70;73.20;;;;;;5004477;28;20032;-69
2021/03/09 10:50:43;;;;;;;16.45;3.03;;;23.70;73.10;;;;;;5001919;28;20048;-67
2021/03/09 10:53:12;;;;;;;14.50;3.20;;;23.70;73.40;;;;;;5000188;28;20038;-70
2021/03/09 10:55:39;;;;;;;9.65;3.20;;;23.70;73.50;;;;;;5002823;28;20049;-68
2021/03/09 10:58:06;;;;;;;16.35;3.72;;;23.70;73.40;;;;;;5002719;28;20125;-68
2021/03/09 11:00:34;;;;;;;16.30;3.38;;;23.70;73.60;;;;;;5002485;28;20034;-67
2021/03/09 11:03:01;;;;;;;13.23;3.35;;;23.70;73.50;;;;;;4999062;28;20286;-67
2021/03/09 11:05:28;;;;;;;13.70;3.10;;;23.60;73.60;;;;;;5002773;28;20109;-68
2021/03/09 11:07:56;;;;;;;10.20;3.95;;;23.70;73.40;;;;;;5003465;28;20114;-67
2021/03/09 11:10:23;;;;;;;11.20;3.28;;;23.60;73.80;;;;;;5001619;28;20022;-69
2021/03/09 11:12:50;;;;;;;18.95;3.97;;;23.60;73.50;;;;;;4999539;28;20034;-69
2021/03/09 11:15:18;;;;;;;13.20;2.70;;;23.60;73.80;;;;;;5004709;28;20042;-67
2021/03/09 11:17:46;;;;;;;16.23;3.05;;;23.60;73.60;;;;;;5004463;28;20048;-68
2021/03/09 11:20:14;;;;;;;16.60;3.63;;;23.70;74.20;;;;;;5004325;28;20034;-68
2021/03/09 11:22:41;;;;;;;14.80;3.30;;;23.70;73.40;;;;;;4999181;28;20029;-67
2021/03/09 11:25:10;;;;;;;12.98;2.90;;;23.60;74.90;;;;;;5001523;28;20030;-71
2021/03/09 11:27:37;;;;;;;15.63;3.58;;;23.60;75.40;;;;;;5001251;28;20038;-70
2021/03/09 11:30:06;;;;;;;19.10;3.83;;;23.60;76.50;;;;;;5000447;28;20034;-70
2021/03/09 11:32:34;;;;;;;14.75;3.85;;;23.40;76.90;;;;;;4998199;28;20112;-69
2021/03/09 11:35:01;;;;;;;15.38;3.72;;;23.40;78.00;;;;;;5001939;28;20096;-71
2021/03/09 11:37:28;;;;;;;13.65;2.92;;;23.30;78.50;;;;;;5002225;28;20022;-70
2021/03/09 11:39:56;;;;;;;13.70;3.28;;;23.20;78.10;;;;;;5001646;28;20587;-70
2021/03/09 11:42:23;;;;;;;17.80;4.30;;;23.20;78.10;;;;;;4996954;28;20037;-68
2021/03/09 11:44:50;;;;;;;14.55;3.08;;;23.10;78.30;;;;;;4999629;28;20092;-69
2021/03/09 11:47:18;;;;;;;11.98;2.70;;;23.10;78.50;;;;;;5001081;28;20420;-70
2021/03/09 11:49:45;;;;;;;13.85;3.25;;;23.10;78.80;;;;;;5001744;28;20088;-69
2021/03/09 11:52:13;;;;;;;8.90;3.50;;;23.20;78.10;;;;;;4999014;28;20038;-67
2021/03/09 11:54:40;;;;;;;14.00;3.85;;;23.10;78.40;;;;;;5001921;28;20045;-68
2021/03/09 11:57:07;;;;;;;10.38;2.78;;;23.20;79.50;;;;;;5001603;28;20697;-68
2021/03/09 11:59:35;;;;;;;12.18;3.15;;;23.10;78.90;;;;;;5002364;28;20064;-70
2021/03/09 12:02:02;;;;;;;15.23;4.47;;;23.00;78.80;;;;;;4999320;28;20758;-71
2021/03/09 12:04:29;;;;;;;15.40;3.20;;;23.10;79.40;;;;;;5000051;28;20033;-70
2021/03/09 12:06:57;;;;;;;15.95;3.75;;;23.10;78.90;;;;;;5001917;28;20080;-71
2021/03/09 12:09:24;;;;;;;13.50;3.03;;;23.10;78.40;;;;;;5002121;28;20083;-70
2021/03/09 12:11:52;;;;;;;16.50;3.45;;;23.00;77.70;;;;;;5002156;28;20384;-70
2021/03/09 12:14:20;;;;;;;14.63;2.95;;;23.10;76.90;;;;;;4998554;28;20060;-69
2021/03/09 12:16:47;;;;;;;9.85;2.35;;;23.10;77.00;;;;;;5002611;28;20366;-69
2021/03/09 12:19:15;;;;;;;10.57;2.15;;;23.20;77.00;;;;;;5002725;28;20107;-71
2021/03/09 12:21:42;;;;;;;11.10;2.60;;;23.10;77.00;;;;;;5000922;28;20465;-71
2021/03/09 12:24:10;;;;;;;11.18;2.90;;;23.00;76.60;;;;;;4999472;28;21178;-68
2021/03/09 12:26:37;;;;;;;13.35;3.00;;;22.90;77.10;;;;;;5001004;28;20095;-69
2021/03/09 12:29:05;;;;;;;10.32;2.90;;;22.90;76.90;;;;;;5002537;28;20444;-69
2021/03/09 12:31:32;;;;;;;13.05;3.03;;;23.00;76.60;;;;;;5001267;28;20037;-69
2021/03/09 12:34:00;;;;;;;11.82;2.30;;;23.00;76.30;;;;;;4998825;28;20026;-68
2021/03/09 12:36:28;;;;;;;8.93;1.92;;;23.00;76.40;;;;;;5014973;28;20025;-69
2021/03/09 12:38:55;;;;;;;11.52;2.65;;;23.00;76.20;;;;;;4999827;28;20360;-70
2021/03/09 12:41:23;;;;;;;11.10;2.25;;;22.90;77.10;;;;;;5001460;28;20025;-68
2021/03/09 12:43:51;;;;;;;14.32;3.60;;;22.70;78.20;;;;;;4998361;28;20141;-69
2021/03/09 12:46:18;;;;;;;14.00;3.00;;;22.60;79.20;;;;;;5000188;28;20148;-72
2021/03/09 12:48:48;;;;;;;9.93;2.47;;;22.50;78.80;;;;;;4999308;28;20128;-72
2021/03/09 12:51:16;;;;;;;13.43;2.83;;;22.50;79.40;;;;;;4999492;28;20025;-70
2021/03/09 12:53:43;;;;;;;8.05;2.05;;;22.50;79.20;;;;;;4999151;28;20041;-73
2021/03/09 12:56:11;;;;;;;9.43;2.88;;;22.50;79.10;;;;;;5003578;28;20037;-74
2021/03/09 12:58:38;;;;;;;13.63;3.20;;;22.50;78.50;;;;;;5006666;28;20033;-68